createdAt,value
2018-10-03T00:02:49.595Z,95492.91
2018-10-03T00:05:19.094Z,95489.19
2018-10-03T00:07:48.868Z,95492.66
2018-10-03T00:10:18.956Z,95491.81
2018-10-03T00:12:48.727Z,95490.79
2018-10-03T00:15:18.534Z,95497.61
2018-10-03T00:17:48.287Z,95501.09
2018-10-03T00:20:18.062Z,95502.59
2018-10-03T00:22:47.773Z,95498.16
2018-10-03T00:25:17.806Z,95498.16
2018-10-03T00:27:47.397Z,95502.31
2018-10-03T00:30:17.061Z,95501.50
2018-10-03T00:32:46.887Z,95509.97
2018-10-03T00:35:16.865Z,95505.52
2018-10-03T00:55:09.001Z,95507.55
2018-10-03T00:57:38.603Z,95508.86
2018-10-03T01:00:08.388Z,95512.55
2018-10-03T01:02:38.330Z,95515.42
2018-10-03T01:05:08.124Z,95518.55
2018-10-03T01:07:37.837Z,95520.41
2018-10-03T01:10:07.704Z,95518.05
2018-10-03T01:12:37.396Z,95518.39
2018-10-03T01:15:07.511Z,95519.20
2018-10-03T01:17:37.388Z,95514.20
2018-10-03T01:37:29.458Z,95521.44
2018-10-03T01:39:59.366Z,95526.31
2018-10-03T01:42:29.178Z,95528.94
2018-10-03T01:44:58.591Z,95521.91
2018-10-03T01:47:28.454Z,95526.31
2018-10-03T01:49:58.121Z,95522.33
2018-10-03T01:52:27.839Z,95524.41
2018-10-03T01:54:57.610Z,95527.02
2018-10-03T01:57:27.385Z,95523.14
2018-10-03T01:59:57.128Z,95520.00
2018-10-03T02:02:27.167Z,95521.52
2018-10-03T02:04:57.105Z,95528.63
2018-10-03T02:07:26.767Z,95519.35
2018-10-03T02:27:18.318Z,95517.70
2018-10-03T02:29:48.251Z,95524.06
2018-10-03T02:32:17.960Z,95523.54
2018-10-03T02:34:47.918Z,95518.81
2018-10-03T02:37:17.858Z,95521.98
2018-10-03T02:39:47.444Z,95524.91
2018-10-03T02:42:17.590Z,95519.10
2018-10-03T02:44:47.349Z,95521.73
2018-10-03T02:47:17.127Z,95526.73
2018-10-03T02:49:46.602Z,95519.60
2018-10-03T02:52:16.033Z,95518.80
2018-10-03T02:54:45.731Z,95521.29
2018-10-03T02:57:15.250Z,95521.88
2018-10-03T02:59:44.789Z,95526.16
2018-10-03T03:02:14.291Z,95521.98
2018-10-03T03:04:44.431Z,95518.16
2018-10-03T03:24:36.080Z,95524.31
2018-10-03T03:27:06.280Z,95527.98
2018-10-03T03:29:35.791Z,95524.36
2018-10-03T03:32:05.453Z,95530.92
2018-10-03T03:34:34.982Z,95532.69
2018-10-03T03:37:04.742Z,95532.79
2018-10-03T03:39:34.112Z,95537.22
2018-10-03T03:42:04.043Z,95538.33
2018-10-03T03:44:33.510Z,95530.38
2018-10-03T04:04:25.988Z,95524.54
2018-10-03T04:06:55.621Z,95525.42
2018-10-03T04:09:25.238Z,95523.29
2018-10-03T04:11:55.233Z,95532.41
2018-10-03T04:14:24.941Z,95536.03
2018-10-03T04:16:54.423Z,95543.52
2018-10-03T04:19:24.215Z,95547.69
2018-10-03T04:21:53.867Z,95549.71
2018-10-03T04:24:23.702Z,95543.16
2018-10-03T04:26:53.654Z,95545.02
2018-10-03T04:29:23.342Z,95544.48
2018-10-03T04:31:52.899Z,95546.90
2018-10-03T04:34:22.641Z,95554.38
2018-10-03T04:36:52.056Z,95546.16
2018-10-03T04:39:21.564Z,95556.75
2018-10-03T04:41:50.991Z,95559.63
2018-10-03T04:44:20.423Z,95564.81
2018-10-03T04:46:50.400Z,95564.81
2018-10-03T04:49:20.207Z,95559.98
2018-10-03T04:51:49.773Z,95558.10
2018-10-03T04:54:19.494Z,95571.93
2018-10-03T04:56:49.601Z,95572.84
2018-10-03T04:59:19.189Z,95568.89
2018-10-03T05:01:48.945Z,95578.91
2018-10-03T05:04:18.884Z,95577.55
2018-10-03T05:06:48.616Z,95585.04
2018-10-03T05:09:18.158Z,95581.17
2018-10-03T05:11:47.889Z,95581.13
2018-10-03T05:14:17.326Z,95573.17
2018-10-03T05:34:08.968Z,95593.04
2018-10-03T05:36:39.001Z,95590.95
2018-10-03T05:39:11.771Z,95592.97
2018-10-03T05:41:42.280Z,95588.91
2018-10-03T05:44:12.762Z,95587.95
2018-10-03T05:46:42.730Z,95592.70
2018-10-03T05:49:12.163Z,95595.95
2018-10-03T05:51:42.107Z,95606.67
2018-10-03T05:54:11.954Z,95605.55
2018-10-03T05:56:41.594Z,95605.64
2018-10-03T05:59:11.448Z,95608.91
2018-10-03T06:01:41.115Z,95614.73
2018-10-03T06:04:10.889Z,95607.30
2018-10-03T06:06:41.179Z,95611.91
2018-10-03T06:26:33.188Z,95615.36
2018-10-03T06:29:03.070Z,95616.67
2018-10-03T06:31:32.927Z,95623.23
2018-10-03T06:34:02.630Z,95623.78
2018-10-03T06:36:32.915Z,95628.48
2018-10-03T06:39:02.737Z,95628.89
2018-10-03T06:41:32.412Z,95620.84
2018-10-03T06:44:02.119Z,95621.83
2018-10-03T06:46:32.768Z,95623.70
2018-10-03T06:49:03.011Z,95623.15
2018-10-03T06:51:32.587Z,95626.41
2018-10-03T06:54:02.439Z,95632.63
2018-10-03T06:56:32.051Z,95624.27
2018-10-03T07:16:23.847Z,95634.83
2018-10-03T07:36:15.322Z,95633.02
2018-10-03T07:38:45.929Z,95532.88
2018-10-03T07:41:16.203Z,95623.63
2018-10-03T07:43:46.029Z,95622.94
2018-10-03T07:46:15.488Z,95622.45
2018-10-03T07:48:45.234Z,95625.98
2018-10-03T07:51:15.427Z,95622.37
2018-10-03T07:53:45.283Z,95620.82
2018-10-03T07:56:14.790Z,95616.91
2018-10-03T07:58:44.684Z,95612.95
2018-10-03T08:01:14.454Z,95616.75
2018-10-03T08:21:06.622Z,95597.48
2018-10-03T08:23:36.365Z,95598.28
2018-10-03T08:26:06.141Z,95603.57
2018-10-03T08:28:36.533Z,95609.63
2018-10-03T08:31:06.332Z,95599.33
2018-10-03T08:33:36.107Z,95605.41
2018-10-03T08:36:05.934Z,95600.39
2018-10-03T08:38:35.458Z,95589.58
2018-10-03T08:41:05.026Z,95585.87
2018-10-03T08:43:34.614Z,95587.96
2018-10-03T08:46:03.919Z,95585.31
2018-10-03T08:48:33.614Z,95584.47
2018-10-03T08:51:03.136Z,95588.94
2018-10-03T09:16:42.914Z,95566.43
2018-10-03T09:19:13.198Z,95554.52
2018-10-03T09:21:42.844Z,95548.59
2018-10-03T09:24:12.717Z,95547.84
2018-10-03T09:26:42.393Z,95550.49
2018-10-03T09:29:11.946Z,95543.31
2018-10-03T09:31:42.160Z,95541.13
2018-10-03T09:34:11.977Z,95536.00
2018-10-03T09:36:41.817Z,95529.86
2018-10-03T09:39:13.034Z,95535.16
2018-10-03T09:41:42.956Z,95539.85
2018-10-03T09:44:12.827Z,95539.34
2018-10-03T09:46:42.784Z,95535.02
2018-10-03T09:49:12.402Z,95530.30
2018-10-03T09:51:42.097Z,95521.53
2018-10-03T09:54:11.843Z,95524.19
2018-10-03T09:56:41.381Z,95522.70
2018-10-03T09:59:11.209Z,95520.28
2018-10-03T10:01:41.123Z,95520.66
2018-10-03T10:04:10.868Z,95517.77
2018-10-03T10:06:40.666Z,95513.15
2018-10-03T10:09:11.442Z,95510.37
2018-10-03T10:11:41.207Z,95509.00
2018-10-03T10:14:10.433Z,95501.66
2018-10-03T10:16:40.856Z,95501.56
2018-10-03T10:19:10.546Z,95485.79
2018-10-03T10:21:40.161Z,95482.66
2018-10-03T10:24:10.075Z,95475.97
2018-10-03T10:26:39.706Z,95481.70
2018-10-03T10:29:09.398Z,95477.59
2018-10-03T10:31:39.512Z,95471.12
2018-10-03T10:34:09.324Z,95473.59
2018-10-03T10:36:39.046Z,95468.69
2018-10-03T10:39:10.798Z,95466.64
2018-10-03T10:41:40.566Z,95468.77
2018-10-03T11:01:32.906Z,95428.09
2018-10-03T11:04:02.472Z,95422.29
2018-10-03T11:06:31.994Z,95413.82
2018-10-03T11:09:02.083Z,95411.39
2018-10-03T11:11:31.721Z,95396.24
2018-10-03T11:31:23.248Z,95365.27
2018-10-03T11:33:52.822Z,95356.30
2018-10-03T11:36:22.466Z,95350.78
2018-10-03T11:38:52.323Z,95355.05
2018-10-03T11:41:22.199Z,95358.03
2018-10-03T11:43:51.787Z,95361.03
2018-10-03T11:46:21.670Z,95353.08
2018-10-03T11:48:52.011Z,95346.77
2018-10-03T11:51:21.679Z,95353.27
2018-10-03T11:53:51.821Z,95351.96
2018-10-03T11:56:21.415Z,95346.92
2018-10-03T11:58:51.348Z,95347.83
2018-10-03T12:18:43.522Z,95326.52
2018-10-03T12:21:13.480Z,95325.51
2018-10-03T12:23:43.317Z,95319.92
2018-10-03T12:26:13.455Z,95322.50
2018-10-03T12:28:43.022Z,95318.47
2018-10-03T12:31:12.623Z,95323.44
2018-10-03T12:33:42.502Z,95323.90
2018-10-03T12:36:12.188Z,95322.81
2018-10-03T12:38:42.358Z,95321.84
2018-10-03T12:41:12.083Z,95312.62
2018-10-03T12:43:41.807Z,95314.58
2018-10-03T12:46:11.702Z,95317.88
2018-10-03T12:48:41.754Z,95314.48
2018-10-03T12:51:11.474Z,95315.41
2018-10-03T12:53:41.605Z,95315.42
2018-10-03T12:56:11.724Z,95316.61
2018-10-03T12:58:41.425Z,95319.06
2018-10-03T13:18:32.859Z,95311.23
2018-10-03T13:21:02.435Z,95309.05
2018-10-03T13:23:32.043Z,95317.28
2018-10-03T13:43:24.862Z,95311.34
2018-10-03T14:03:17.692Z,95327.97
2018-10-03T14:05:47.715Z,95327.15
2018-10-03T14:08:17.238Z,95327.63
2018-10-03T14:10:47.054Z,95324.62
2018-10-03T14:13:17.090Z,95322.99
2018-10-03T14:15:46.717Z,95320.27
2018-10-03T14:35:38.975Z,95346.97
2018-10-03T14:55:30.670Z,95355.87
2018-10-03T14:58:00.599Z,95357.37
2018-10-03T15:00:30.286Z,95366.89
2018-10-03T15:03:00.035Z,95362.83
2018-10-03T15:05:30.094Z,95380.51
2018-10-03T15:07:59.903Z,95372.41
2018-10-03T15:10:29.355Z,95374.70
2018-10-03T15:12:59.337Z,95378.08
2018-10-03T15:15:29.126Z,95391.02
2018-10-03T15:17:58.743Z,95399.98
2018-10-03T15:20:28.723Z,95398.23
2018-10-03T15:40:20.767Z,95420.95
2018-10-03T15:42:51.098Z,95416.62
2018-10-03T16:02:42.688Z,95459.53
2018-10-03T16:05:12.447Z,95463.84
2018-10-03T16:07:42.859Z,95466.81
2018-10-03T16:10:12.464Z,95466.05
2018-10-03T16:12:42.250Z,95470.16
2018-10-03T16:15:11.927Z,95473.03
2018-10-03T16:17:41.812Z,95471.72
2018-10-03T16:20:11.847Z,95482.59
2018-10-03T16:22:41.785Z,95484.80
2018-10-03T16:25:11.604Z,95487.91
2018-10-03T16:27:41.330Z,95493.83
2018-10-03T16:47:32.273Z,95534.95
2018-10-03T16:50:02.360Z,95536.33
2018-10-03T16:52:31.964Z,95547.67
2018-10-03T17:21:06.122Z,95606.68
2018-10-03T17:23:35.838Z,95605.08
2018-10-03T17:26:05.535Z,95604.31
2018-10-03T17:28:35.002Z,95611.97
2018-10-03T17:31:05.006Z,95610.67
2018-10-03T17:33:34.416Z,95611.45
2018-10-03T17:36:04.092Z,95622.79
2018-10-03T17:38:33.751Z,95617.02
2018-10-03T17:41:03.502Z,95612.78
2018-10-03T17:43:32.905Z,95625.98
2018-10-03T17:46:02.556Z,95632.86
2018-10-03T17:48:31.962Z,95629.95
2018-10-03T18:08:24.026Z,95655.96
2018-10-03T18:10:53.941Z,95657.29
2018-10-03T18:13:23.926Z,95677.25
2018-10-03T18:15:53.861Z,95660.89
2018-10-03T18:18:23.684Z,95663.77
2018-10-03T18:20:53.427Z,95671.92
2018-10-03T18:23:23.675Z,95673.77
2018-10-03T18:25:53.440Z,95675.03
2018-10-03T18:28:23.343Z,95672.40
2018-10-03T18:30:53.621Z,95677.13
2018-10-03T18:33:23.653Z,95687.13
2018-10-03T18:35:53.532Z,95690.06
2018-10-03T18:38:23.651Z,95696.09
2018-10-03T18:58:15.158Z,95707.59
2018-10-03T19:00:45.619Z,95701.48
2018-10-03T19:03:15.327Z,95697.81
2018-10-03T19:05:44.916Z,95698.84
2018-10-03T19:08:14.501Z,95702.48
2018-10-03T19:10:44.194Z,95702.46
2018-10-03T19:13:13.939Z,95699.26
2018-10-03T19:15:44.108Z,95703.20
2018-10-03T19:18:14.050Z,95701.34
2018-10-03T19:20:43.925Z,95702.06
2018-10-03T19:23:14.302Z,95702.03
2018-10-03T19:25:44.361Z,95714.68
2018-10-03T19:28:14.130Z,95711.79
2018-10-03T19:30:44.382Z,95717.53
2018-10-03T19:33:14.251Z,95720.10
2018-10-03T19:35:44.076Z,95730.56
2018-10-03T19:38:13.817Z,95736.88
2018-10-03T19:40:43.592Z,95743.17
2018-10-03T19:43:13.396Z,95737.91
2018-10-03T19:45:43.397Z,95744.78
2018-10-03T19:48:13.065Z,95741.23
2018-10-03T19:50:42.849Z,95749.13
2018-10-03T20:10:35.528Z,95765.22
2018-10-03T20:13:05.348Z,95763.91
2018-10-03T20:15:34.918Z,95765.77
2018-10-03T20:18:05.060Z,95771.20
2018-10-03T20:20:34.853Z,95772.68
2018-10-03T20:40:27.715Z,95784.92
2018-10-03T20:42:57.446Z,95792.00
2018-10-03T20:45:27.311Z,95795.66
2018-10-03T20:47:57.567Z,95794.13
2018-10-03T20:50:27.339Z,95797.52
2018-10-03T20:52:57.402Z,95798.98
2018-10-03T20:55:27.842Z,95795.89
2018-10-03T20:57:57.559Z,95803.98
2018-10-03T21:00:27.420Z,95804.54
2018-10-03T21:02:57.535Z,95820.72
2018-10-03T21:05:28.361Z,95826.72
2018-10-03T21:07:58.787Z,95831.63
2018-10-03T21:10:28.542Z,95834.83
2018-10-03T21:12:58.434Z,95832.63
2018-10-03T21:15:28.524Z,95835.83
2018-10-03T21:17:58.373Z,95835.01
2018-10-03T21:20:28.165Z,95839.95
2018-10-03T21:22:58.127Z,95845.72
2018-10-03T21:25:27.911Z,95856.12
2018-10-03T21:27:57.713Z,95861.16
2018-10-03T21:30:27.775Z,95861.38
2018-10-03T21:32:57.535Z,95857.30
2018-10-03T21:35:27.539Z,95864.63
2018-10-03T21:37:57.723Z,95876.38
2018-10-03T21:40:27.556Z,95883.08
2018-10-03T21:42:57.274Z,95884.08
2018-10-03T21:45:27.535Z,95882.20
2018-10-03T21:47:57.462Z,95882.05
2018-10-03T21:50:27.230Z,95884.20
2018-10-03T21:52:57.450Z,95895.45
2018-10-03T21:55:27.281Z,95891.80
2018-10-03T21:57:57.118Z,95900.81
2018-10-03T22:00:31.900Z,95863.74
2018-10-03T22:03:01.618Z,95890.58
2018-10-03T22:05:31.385Z,95889.77
2018-10-03T22:08:01.353Z,95888.41
2018-10-03T22:10:31.190Z,95881.20
2018-10-03T22:13:00.960Z,95887.06
2018-10-03T22:15:30.887Z,95885.75
2018-10-03T22:18:00.718Z,95887.88
2018-10-03T22:20:30.390Z,95891.99
2018-10-03T22:23:00.343Z,95893.16
2018-10-03T22:25:30.221Z,95901.92
2018-10-03T22:27:59.914Z,95907.52
2018-10-03T22:30:30.293Z,95905.94
2018-10-03T22:33:00.174Z,95907.25
2018-10-03T22:35:30.001Z,95904.48
2018-10-03T22:38:00.078Z,95907.37
2018-10-03T22:40:29.828Z,95915.80
2018-10-03T22:42:59.533Z,95917.03
2018-10-03T22:45:29.460Z,95924.95
2018-10-03T22:47:59.206Z,95925.73
2018-10-03T22:50:29.053Z,95921.14
2018-10-03T22:52:58.853Z,95923.67
2018-10-03T22:55:28.596Z,95929.09
2018-10-03T22:57:58.301Z,95927.05
2018-10-03T23:00:28.425Z,95924.98
2018-10-03T23:02:58.347Z,95926.98
2018-10-03T23:05:27.991Z,95923.11
2018-10-03T23:07:58.185Z,95925.47
2018-10-03T23:10:28.055Z,95931.69
2018-10-03T23:12:57.924Z,95931.87
2018-10-03T23:15:27.889Z,95927.03
2018-10-03T23:17:57.735Z,95926.62
2018-10-03T23:20:27.423Z,95930.41
2018-10-03T23:22:57.791Z,95932.84
2018-10-03T23:25:27.747Z,95927.03
2018-10-03T23:27:57.661Z,95928.17
2018-10-03T23:30:27.643Z,95930.02
2018-10-03T23:32:57.522Z,95939.11
2018-10-03T23:35:27.284Z,95938.83
2018-10-03T23:37:57.342Z,95936.39
2018-10-03T23:40:27.269Z,95941.53
2018-10-03T23:42:57.167Z,95939.36
2018-10-03T23:45:27.217Z,95951.45
2018-10-03T23:47:56.990Z,95945.47
2018-10-03T23:50:26.952Z,95948.83
2018-10-03T23:52:57.082Z,95940.16
2018-10-03T23:55:26.805Z,95949.81
2018-10-03T23:57:56.886Z,95947.42
